createdAt,value
2023-03-29T00:01:35.414Z,67.66
2023-03-29T00:04:39.044Z,67.95
2023-03-29T00:07:42.693Z,68.61
2023-03-29T00:10:49.242Z,69.92
2023-03-29T00:13:52.572Z,69.74
2023-03-29T00:16:55.850Z,69.87
2023-03-29T00:19:59.925Z,69.96
2023-03-29T00:23:03.364Z,70.33
2023-03-29T00:26:08.211Z,70.88
2023-03-29T00:29:12.425Z,71.46
2023-03-29T00:32:15.662Z,71.96
2023-03-29T00:35:19.958Z,72.17
2023-03-29T00:38:23.035Z,72.56
2023-03-29T00:41:26.296Z,72.05
2023-03-29T00:44:54.233Z,71.95
2023-03-29T00:48:02.708Z,72.56
2023-03-29T00:51:09.895Z,72.67
2023-03-29T00:54:16.194Z,73.09
2023-03-29T00:57:21.043Z,73.33
2023-03-29T01:00:28.649Z,73.35
2023-03-29T01:03:36.263Z,72.82
2023-03-29T01:06:43.517Z,73.28
2023-03-29T01:10:02.577Z,73.22
2023-03-29T01:13:13.387Z,72.66
2023-03-29T01:16:19.706Z,73.18
2023-03-29T01:19:26.602Z,73.27
2023-03-29T01:22:51.504Z,73.67
2023-03-29T01:26:21.243Z,73.58
2023-03-29T01:29:32.862Z,73.50
2023-03-29T01:32:55.656Z,73.66
2023-03-29T01:36:08.261Z,74.20
2023-03-29T01:39:11.655Z,74.67
2023-03-29T01:43:05.149Z,74.44
2023-03-29T01:46:14.849Z,74.76
2023-03-29T01:49:34.673Z,74.80
2023-03-29T01:53:13.344Z,75.35
2023-03-29T01:56:20.234Z,75.24
2023-03-29T01:59:30.541Z,75.19
2023-03-29T02:02:33.580Z,75.47
2023-03-29T02:05:39.690Z,75.60
2023-03-29T02:08:43.904Z,75.85
2023-03-29T02:11:50.528Z,76.24
2023-03-29T02:14:56.713Z,76.52
2023-03-29T02:18:00.264Z,76.60
2023-03-29T02:21:04.283Z,76.33
2023-03-29T02:24:10.184Z,76.47
2023-03-29T02:27:14.460Z,76.53
2023-03-29T02:30:19.260Z,76.19
2023-03-29T02:33:27.969Z,75.99
2023-03-29T02:36:40.683Z,76.21
2023-03-29T02:39:44.841Z,76.48
2023-03-29T02:42:49.501Z,76.66
2023-03-29T02:45:53.217Z,76.43
2023-03-29T02:48:57.488Z,76.28
2023-03-29T02:52:03.676Z,76.12
2023-03-29T02:55:15.089Z,76.04
2023-03-29T02:58:18.323Z,75.51
2023-03-29T03:01:23.140Z,74.18
2023-03-29T03:04:26.979Z,74.53
2023-03-29T03:07:30.408Z,74.77
2023-03-29T03:10:37.005Z,75.06
2023-03-29T03:13:41.373Z,75.53
2023-03-29T03:16:44.785Z,76.28
2023-03-29T03:19:47.860Z,76.33
2023-03-29T03:22:51.124Z,76.54
2023-03-29T03:25:55.457Z,76.92
2023-03-29T03:28:59.479Z,76.85
2023-03-29T03:32:05.635Z,77.23
2023-03-29T03:35:11.817Z,77.78
2023-03-29T03:38:16.747Z,78.21
2023-03-29T03:41:20.512Z,77.83
2023-03-29T03:44:23.564Z,77.37
2023-03-29T03:47:30.871Z,76.43
2023-03-29T03:50:34.256Z,75.61
2023-03-29T03:53:38.882Z,75.14
2023-03-29T03:56:43.676Z,75.62
2023-03-29T03:59:49.159Z,75.90
2023-03-29T04:02:54.570Z,76.11
2023-03-29T04:06:00.125Z,76.21
2023-03-29T04:09:05.619Z,76.45
2023-03-29T04:12:14.948Z,76.45
2023-03-29T04:15:20.412Z,76.54
2023-03-29T04:18:26.993Z,76.54
2023-03-29T04:21:30.759Z,76.70
2023-03-29T04:24:34.009Z,76.87
2023-03-29T04:27:39.151Z,76.87
2023-03-29T04:30:46.565Z,76.86
2023-03-29T04:33:51.698Z,76.39
2023-03-29T04:36:55.133Z,75.51
2023-03-29T04:40:04.083Z,75.75
2023-03-29T04:43:12.379Z,76.24
2023-03-29T04:46:17.169Z,75.79
2023-03-29T04:52:25.183Z,76.23
2023-03-29T04:55:29.539Z,76.21
2023-03-29T04:58:34.671Z,76.01
2023-03-29T05:01:38.019Z,76.59
2023-03-29T05:04:41.738Z,76.55
2023-03-29T05:07:45.429Z,76.55
2023-03-29T05:10:50.073Z,75.74
2023-03-29T05:13:57.304Z,75.29
2023-03-29T05:20:10.461Z,76.02
2023-03-29T05:23:13.686Z,75.15
2023-03-29T05:26:20.421Z,75.22
2023-03-29T05:29:23.741Z,75.36
2023-03-29T05:32:28.984Z,74.51
2023-03-29T05:35:33.726Z,74.23
2023-03-29T05:38:40.641Z,75.52
2023-03-29T05:41:44.867Z,75.26
2023-03-29T05:44:48.722Z,74.66
2023-03-29T05:47:52.851Z,75.04
2023-03-29T05:50:57.987Z,74.74
2023-03-29T05:54:02.155Z,74.04
2023-03-29T05:57:06.179Z,73.60
2023-03-29T06:00:25.966Z,72.09
2023-03-29T06:03:30.064Z,71.71
2023-03-29T06:06:34.124Z,71.51
2023-03-29T06:09:38.825Z,70.83
2023-03-29T06:12:42.211Z,70.26
2023-03-29T06:15:47.034Z,69.63
2023-03-29T06:18:52.439Z,69.12
2023-03-29T06:21:55.684Z,69.46
2023-03-29T06:24:59.956Z,69.29
2023-03-29T06:28:04.224Z,68.20
2023-03-29T06:31:10.299Z,68.31
2023-03-29T06:34:14.502Z,67.52
2023-03-29T06:37:20.168Z,67.71
2023-03-29T06:40:25.102Z,66.38
2023-03-29T06:43:28.203Z,64.85
2023-03-29T06:46:35.764Z,64.95
2023-03-29T06:49:41.169Z,62.27
2023-03-29T06:52:46.206Z,60.26
2023-03-29T06:55:51.989Z,60.91
2023-03-29T06:58:56.909Z,59.68
2023-03-29T07:02:01.154Z,57.51
2023-03-29T07:05:11.457Z,55.74
2023-03-29T07:08:16.599Z,54.32
2023-03-29T07:11:20.517Z,54.26
2023-03-29T07:14:26.511Z,54.81
2023-03-29T07:17:29.796Z,54.73
2023-03-29T07:20:33.881Z,58.31
2023-03-29T07:23:37.678Z,55.98
2023-03-29T07:26:46.331Z,54.79
2023-03-29T07:29:57.108Z,54.42
2023-03-29T07:33:00.646Z,54.08
2023-03-29T07:36:05.291Z,53.93
2023-03-29T07:39:13.180Z,54.35
2023-03-29T07:42:18.784Z,54.25
2023-03-29T07:45:26.656Z,54.19
2023-03-29T07:48:33.877Z,54.84
2023-03-29T07:51:38.418Z,52.52
2023-03-29T07:54:42.641Z,53.47
2023-03-29T07:57:46.460Z,54.63
2023-03-29T08:00:50.884Z,54.98
2023-03-29T08:03:55.309Z,53.65
2023-03-29T08:06:59.130Z,54.65
2023-03-29T08:10:03.782Z,53.31
2023-03-29T08:13:08.571Z,52.70
2023-03-29T08:16:12.024Z,50.71
2023-03-29T08:19:16.757Z,51.36
2023-03-29T08:22:22.149Z,51.79
2023-03-29T08:25:35.850Z,53.78
2023-03-29T08:28:39.657Z,53.91
2023-03-29T08:31:43.075Z,52.56
2023-03-29T08:34:47.127Z,52.28
2023-03-29T08:37:51.428Z,53.00
2023-03-29T08:40:55.545Z,51.78
2023-03-29T08:44:20.689Z,50.12
2023-03-29T08:47:39.832Z,50.98
2023-03-29T08:50:48.115Z,48.86
2023-03-29T08:54:01.952Z,50.20
2023-03-29T08:57:31.852Z,49.11
2023-03-29T09:00:47.266Z,46.59
2023-03-29T09:03:57.302Z,46.79
2023-03-29T09:07:03.539Z,46.16
2023-03-29T09:10:14.586Z,46.01
2023-03-29T09:13:36.644Z,44.60
2023-03-29T09:17:03.778Z,43.40
2023-03-29T09:20:28.150Z,44.26
2023-03-29T09:23:55.782Z,44.00
2023-03-29T09:27:21.229Z,42.76
2023-03-29T09:30:41.962Z,42.75
2023-03-29T09:34:15.864Z,41.49
2023-03-29T09:37:33.843Z,40.27
2023-03-29T09:40:44.637Z,40.88
2023-03-29T09:43:50.058Z,40.23
2023-03-29T09:46:57.805Z,39.51
2023-03-29T09:50:30.351Z,39.15
2023-03-29T09:53:35.852Z,39.12
2023-03-29T09:56:39.969Z,37.70
2023-03-29T09:59:46.297Z,41.79
2023-03-29T10:02:53.926Z,39.26
2023-03-29T10:06:02.822Z,40.18
2023-03-29T10:09:15.636Z,40.44
2023-03-29T10:12:20.068Z,40.21
2023-03-29T10:15:29.662Z,39.88
2023-03-29T10:18:41.656Z,39.52
2023-03-29T10:21:46.323Z,38.66
2023-03-29T10:24:52.410Z,38.50
2023-03-29T10:28:02.645Z,38.75
2023-03-29T10:31:08.414Z,38.77
2023-03-29T10:34:15.345Z,39.71
2023-03-29T10:37:20.031Z,37.61
2023-03-29T10:40:28.730Z,39.23
2023-03-29T10:43:51.845Z,40.12
2023-03-29T10:46:56.313Z,38.75
2023-03-29T10:49:59.563Z,38.43
2023-03-29T10:53:03.283Z,40.16
2023-03-29T10:56:54.733Z,38.31
2023-03-29T11:00:07.154Z,37.58
2023-03-29T11:03:26.337Z,37.22
2023-03-29T11:06:49.253Z,37.66
2023-03-29T11:10:06.687Z,36.30
2023-03-29T11:13:22.262Z,37.68
2023-03-29T11:16:49.882Z,35.16
2023-03-29T11:20:19.627Z,36.17
2023-03-29T11:23:29.904Z,36.15
2023-03-29T11:26:36.394Z,35.38
2023-03-29T11:30:18.272Z,35.24
2023-03-29T11:33:44.722Z,33.71
2023-03-29T11:37:20.656Z,33.86
2023-03-29T11:40:52.653Z,32.63
2023-03-29T11:43:56.998Z,32.43
2023-03-29T11:47:07.483Z,33.83
2023-03-29T11:50:24.536Z,34.04
2023-03-29T11:53:31.683Z,32.30
2023-03-29T11:56:49.230Z,32.33
2023-03-29T12:00:00.024Z,30.53
2023-03-29T12:03:13.991Z,31.77
2023-03-29T12:06:32.122Z,31.62
2023-03-29T12:09:39.681Z,32.80
2023-03-29T12:12:47.316Z,31.60
2023-03-29T12:15:54.570Z,31.60
2023-03-29T12:19:01.745Z,31.73
2023-03-29T12:22:07.972Z,34.30
2023-03-29T12:25:18.778Z,32.50
2023-03-29T12:28:26.005Z,32.04
2023-03-29T12:32:05.606Z,30.59
2023-03-29T12:35:27.706Z,30.20
2023-03-29T12:38:32.834Z,32.05
2023-03-29T12:41:38.493Z,31.99
2023-03-29T12:44:50.461Z,31.00
2023-03-29T12:47:55.251Z,30.29
2023-03-29T12:51:04.290Z,28.92
2023-03-29T12:54:20.331Z,28.06
2023-03-29T12:57:38.607Z,29.42
2023-03-29T13:00:44.492Z,29.99
2023-03-29T13:03:56.159Z,30.06
2023-03-29T13:07:04.720Z,31.28
2023-03-29T13:10:09.770Z,32.35
2023-03-29T13:13:19.279Z,33.42
2023-03-29T13:16:31.138Z,31.80
2023-03-29T13:20:01.692Z,31.67
2023-03-29T13:23:17.030Z,31.51
2023-03-29T13:26:42.902Z,30.30
2023-03-29T13:30:09.377Z,28.08
2023-03-29T13:33:35.373Z,27.13
2023-03-29T13:37:33.079Z,26.45
2023-03-29T13:40:53.001Z,28.34
2023-03-29T13:43:56.838Z,30.01
2023-03-29T13:47:16.678Z,29.59
2023-03-29T13:50:33.508Z,31.61
2023-03-29T13:54:01.021Z,30.91
2023-03-29T13:57:17.914Z,29.44
2023-03-29T14:00:26.998Z,28.38
2023-03-29T14:03:35.084Z,28.34
2023-03-29T14:06:38.466Z,26.02
2023-03-29T14:09:45.200Z,27.53
2023-03-29T14:12:48.291Z,29.46
2023-03-29T14:16:09.179Z,28.71
2023-03-29T14:19:15.529Z,28.42
2023-03-29T14:22:22.036Z,27.87
2023-03-29T14:25:25.634Z,27.77
2023-03-29T14:28:29.075Z,27.48
2023-03-29T14:31:32.026Z,25.33
2023-03-29T14:34:35.661Z,27.88
2023-03-29T14:37:38.823Z,28.60
2023-03-29T14:40:44.484Z,26.95
2023-03-29T14:43:47.655Z,29.63
2023-03-29T14:46:51.197Z,30.41
2023-03-29T14:49:56.293Z,32.38
2023-03-29T14:53:00.766Z,32.29
2023-03-29T14:56:04.904Z,32.29
2023-03-29T14:59:24.495Z,32.25
2023-03-29T15:02:29.912Z,31.60
2023-03-29T15:05:39.153Z,32.59
2023-03-29T15:08:50.853Z,32.49
2023-03-29T15:12:02.676Z,34.01
2023-03-29T15:15:07.864Z,32.67
2023-03-29T15:18:15.185Z,34.08
2023-03-29T15:21:22.853Z,35.73
2023-03-29T15:24:31.594Z,35.00
2023-03-29T15:27:42.643Z,36.16
2023-03-29T15:30:54.169Z,35.92
2023-03-29T15:34:14.937Z,37.23
2023-03-29T15:37:18.248Z,38.45
2023-03-29T15:40:24.064Z,39.13
2023-03-29T15:43:27.632Z,39.83
2023-03-29T15:46:32.307Z,40.23
2023-03-29T15:49:35.590Z,40.41
2023-03-29T15:52:39.742Z,41.08
2023-03-29T15:55:51.536Z,41.85
2023-03-29T15:58:54.526Z,43.06
2023-03-29T16:01:58.928Z,42.60
2023-03-29T16:05:02.284Z,44.05
2023-03-29T16:08:05.282Z,43.94
2023-03-29T16:11:09.326Z,43.42
2023-03-29T16:14:23.282Z,43.87
2023-03-29T16:17:26.496Z,43.55
2023-03-29T16:20:30.136Z,43.34
2023-03-29T16:23:33.400Z,43.97
2023-03-29T16:26:36.788Z,44.06
2023-03-29T16:29:40.187Z,44.44
2023-03-29T16:32:56.388Z,44.81
2023-03-29T16:36:06.695Z,44.79
2023-03-29T16:39:11.317Z,43.81
2023-03-29T16:42:14.702Z,43.55
2023-03-29T16:45:19.513Z,43.52
2023-03-29T16:48:24.134Z,43.93
2023-03-29T16:51:27.239Z,43.65
2023-03-29T16:54:31.804Z,44.22
2023-03-29T16:57:34.858Z,43.92
2023-03-29T17:00:38.983Z,43.79
2023-03-29T17:03:43.164Z,43.39
2023-03-29T17:06:48.680Z,45.58
2023-03-29T17:09:52.654Z,44.14
2023-03-29T17:12:56.231Z,46.50
2023-03-29T17:15:59.364Z,47.33
2023-03-29T17:19:02.673Z,48.11
2023-03-29T17:22:06.416Z,46.93
2023-03-29T17:25:12.020Z,46.88
2023-03-29T17:28:15.926Z,46.91
2023-03-29T17:31:19.874Z,46.70
2023-03-29T17:34:23.401Z,48.99
2023-03-29T17:37:29.524Z,51.19
2023-03-29T17:40:33.603Z,53.38
2023-03-29T17:43:39.464Z,55.22
2023-03-29T17:46:42.604Z,56.36
2023-03-29T17:49:46.441Z,56.97
2023-03-29T17:52:49.935Z,57.65
2023-03-29T17:55:53.558Z,58.31
2023-03-29T17:58:57.479Z,59.38
2023-03-29T18:02:04.034Z,59.60
2023-03-29T18:05:09.599Z,59.51
2023-03-29T18:08:15.136Z,59.37
2023-03-29T18:11:23.010Z,59.50
2023-03-29T18:14:30.294Z,59.84
2023-03-29T18:17:36.309Z,60.04
2023-03-29T18:20:40.386Z,60.48
2023-03-29T18:23:47.652Z,60.54
2023-03-29T18:26:52.537Z,60.87
2023-03-29T18:29:56.714Z,61.11
2023-03-29T18:33:00.407Z,61.52
2023-03-29T18:36:12.689Z,61.18
2023-03-29T18:39:18.492Z,61.52
2023-03-29T18:42:22.282Z,61.24
2023-03-29T18:45:26.967Z,61.46
2023-03-29T18:48:34.173Z,62.12
2023-03-29T18:51:41.788Z,62.24
2023-03-29T18:54:46.712Z,61.95
2023-03-29T18:57:51.808Z,62.14
2023-03-29T19:01:01.962Z,62.81
2023-03-29T19:04:06.363Z,63.32
2023-03-29T19:07:11.245Z,63.76
2023-03-29T19:10:20.241Z,64.29
2023-03-29T19:13:24.978Z,65.45
2023-03-29T19:16:29.437Z,65.28
2023-03-29T19:19:34.501Z,65.68
2023-03-29T19:22:39.137Z,65.01
2023-03-29T19:25:44.000Z,66.25
2023-03-29T19:28:47.929Z,66.13
2023-03-29T19:31:52.775Z,66.22
2023-03-29T19:34:57.185Z,66.48
2023-03-29T19:38:06.325Z,67.36
2023-03-29T19:41:13.276Z,66.72
2023-03-29T19:44:20.165Z,66.57
2023-03-29T19:47:24.112Z,66.57
2023-03-29T19:50:31.753Z,66.28
2023-03-29T19:53:38.392Z,67.11
2023-03-29T19:56:43.612Z,66.99
2023-03-29T19:59:47.221Z,66.82
2023-03-29T20:02:51.521Z,67.03
2023-03-29T20:05:57.671Z,67.70
2023-03-29T20:09:17.653Z,67.57
2023-03-29T20:12:22.878Z,67.80
2023-03-29T20:15:26.302Z,67.47
2023-03-29T20:18:30.165Z,67.91
2023-03-29T20:21:34.423Z,67.65
2023-03-29T20:24:39.359Z,68.07
2023-03-29T20:27:42.893Z,67.58
2023-03-29T20:30:51.210Z,67.71
2023-03-29T20:33:55.771Z,67.68
2023-03-29T20:37:02.261Z,67.23
2023-03-29T20:40:08.348Z,67.70
2023-03-29T20:43:13.739Z,67.74
2023-03-29T20:46:22.887Z,67.47
2023-03-29T20:49:26.682Z,67.59
2023-03-29T20:52:30.786Z,68.40
2023-03-29T20:55:38.206Z,68.51
2023-03-29T20:58:42.310Z,68.78
2023-03-29T21:01:47.273Z,68.80
2023-03-29T21:04:52.793Z,68.68
2023-03-29T21:07:58.190Z,68.40
2023-03-29T21:11:01.530Z,68.87
2023-03-29T21:14:05.759Z,68.65
2023-03-29T21:17:09.561Z,69.19
2023-03-29T21:20:13.279Z,69.61
2023-03-29T21:23:16.447Z,69.95
2023-03-29T21:26:19.813Z,70.22
2023-03-29T21:29:22.830Z,69.77
2023-03-29T21:32:26.099Z,69.98
2023-03-29T21:35:29.097Z,70.85
2023-03-29T21:38:32.387Z,70.64
2023-03-29T21:41:35.521Z,70.73
2023-03-29T21:44:38.493Z,71.31
2023-03-29T21:47:41.487Z,71.27
2023-03-29T21:50:46.074Z,71.33
2023-03-29T21:53:49.022Z,71.74
2023-03-29T21:56:53.907Z,71.17
2023-03-29T21:59:56.919Z,71.20
2023-03-29T22:03:00.360Z,71.02
2023-03-29T22:06:08.679Z,71.26
2023-03-29T22:09:11.586Z,71.51
2023-03-29T22:12:14.845Z,71.53
2023-03-29T22:15:20.748Z,70.52
2023-03-29T22:18:28.130Z,70.83
2023-03-29T22:21:32.044Z,70.47
2023-03-29T22:24:35.564Z,71.41
2023-03-29T22:27:38.860Z,71.87
2023-03-29T22:30:42.111Z,72.05
2023-03-29T22:33:46.283Z,71.83
2023-03-29T22:36:49.595Z,71.40
2023-03-29T22:39:52.557Z,71.14
2023-03-29T22:42:56.060Z,71.70
2023-03-29T22:45:59.022Z,70.53
2023-03-29T22:49:02.846Z,69.50
2023-03-29T22:52:05.976Z,69.27
2023-03-29T22:55:09.819Z,69.82
2023-03-29T22:58:12.881Z,70.17
2023-03-29T23:01:16.335Z,70.90
2023-03-29T23:04:19.345Z,71.47
2023-03-29T23:07:22.584Z,71.64
2023-03-29T23:10:31.482Z,70.34
2023-03-29T23:13:35.343Z,71.01
2023-03-29T23:16:38.332Z,71.74
2023-03-29T23:19:41.752Z,71.24
2023-03-29T23:22:44.961Z,71.92
2023-03-29T23:25:49.401Z,70.72
2023-03-29T23:28:54.479Z,71.82
2023-03-29T23:31:57.706Z,71.07
2023-03-29T23:35:00.608Z,70.72
2023-03-29T23:38:05.637Z,69.26
2023-03-29T23:41:10.489Z,69.04
2023-03-29T23:44:13.792Z,69.84
2023-03-29T23:47:18.218Z,69.84
2023-03-29T23:50:23.797Z,68.86
2023-03-29T23:53:29.481Z,69.15
2023-03-29T23:56:32.713Z,70.84
2023-03-29T23:59:38.038Z,71.03
